| time (UTC) | temp C | wind direction | speed KPH | gust KPH | rain 1hr cm | rain 24hr cm | rain mn cm | humidity % | barometer mb |
| 20260905234925 | 16 | 109 | 0.0 | 0.0 | 0.00 | 0.15 | 0.15 | 98 | 1012.3 |
| 20260905234421 | 16 | 110 | 0.0 | 0.0 | 0.00 | 0.15 | 0.15 | 98 | 1012.4 |
| 20260905233915 | 16 | 116 | 0.0 | 1.6 | 0.00 | 0.15 | 0.15 | 98 | 1012.3 |
| 20260905233410 | 16 | 99 | 1.6 | 1.6 | 0.00 | 0.15 | 0.15 | 98 | 1012.3 |
| 20260905232909 | 16 | 108 | 0.0 | 1.6 | 0.00 | 0.15 | 0.15 | 98 | 1012.2 |
| 20260905232405 | 16 | 109 | 0.0 | 0.0 | 0.00 | 0.15 | 0.15 | 98 | 1012.2 |
| 20260905231900 | 16 | 109 | 0.0 | 0.0 | 0.00 | 0.15 | 0.15 | 98 | 1012.0 |
| 20260905231356 | 16 | 109 | 0.0 | 0.0 | 0.00 | 0.15 | 0.15 | 98 | 1012.1 |
| 20260905230853 | 16 | 105 | 0.0 | 0.0 | 0.00 | 0.15 | 0.15 | 98 | 1012.0 |
| 20260905230350 | 16 | 105 | 0.0 | 0.0 | 0.00 | 0.15 | 0.15 | 98 | 1012.1 |
| 20260905225844 | 16 | 105 | 0.0 | 0.0 | 0.00 | 0.15 | 0.15 | 98 | 1011.9 |
| 20260905225339 | 16 | 109 | 0.0 | 0.0 | 0.00 | 0.15 | 0.15 | 98 | 1011.8 |
| 20260905224834 | 16 | 104 | 0.0 | 1.6 | 0.00 | 0.15 | 0.15 | 98 | 1012.0 |
| 20260905224330 | 16 | 108 | 0.0 | 0.0 | 0.00 | 0.15 | 0.15 | 98 | 1011.9 |
| 20260905223824 | 16 | 116 | 1.6 | 1.6 | 0.00 | 0.15 | 0.15 | 98 | 1012.0 |
| 20260905223322 | 16 | 109 | 0.0 | 0.0 | 0.00 | 0.15 | 0.15 | 98 | 1011.9 |
| 20260905222817 | 17 | 108 | 0.0 | 0.0 | 0.00 | 0.15 | 0.15 | 98 | 1011.7 |
| 20260905222316 | 17 | 101 | 0.0 | 0.0 | 0.00 | 0.15 | 0.15 | 98 | 1011.7 |
| 20260905221812 | 17 | 106 | 0.0 | 0.0 | 0.00 | 0.15 | 0.15 | 98 | 1011.7 |
| 20260905221309 | 17 | 111 | 0.0 | 0.0 | 0.00 | 0.15 | 0.15 | 98 | 1011.9 |
| 20260905220803 | 17 | 111 | 0.0 | 0.0 | 0.00 | 0.15 | 0.15 | 98 | 1011.8 |
| 20260905220300 | 17 | 109 | 0.0 | 0.0 | 0.00 | 0.15 | 0.15 | 98 | 1011.7 |
| 20260905215759 | 17 | 109 | 0.0 | 0.0 | 0.00 | 0.15 | 0.15 | 98 | 1011.6 |
| 20260905215255 | 17 | 108 | 0.0 | 0.0 | 0.00 | 0.15 | 0.15 | 98 | 1011.2 |
| 20260905214750 | 17 | 111 | 0.0 | 1.6 | 0.00 | 0.15 | 0.15 | 98 | 1011.2 |
| 20260905214246 | 17 | 110 | 1.6 | 1.6 | 0.00 | 0.15 | 0.15 | 98 | 1011.2 |
| 20260905213741 | 17 | 110 | 0.0 | 0.0 | 0.00 | 0.15 | 0.15 | 98 | 1011.3 |
| 20260905213237 | 17 | 108 | 1.6 | 1.6 | 0.00 | 0.15 | 0.15 | 98 | 1011.3 |
| 20260905212732 | 17 | 108 | 0.0 | 0.0 | 0.00 | 0.15 | 0.15 | 98 | 1011.1 |
| 20260905212232 | 17 | 106 | 0.0 | 0.0 | 0.00 | 0.15 | 0.15 | 98 | 1011.2 |
| 20260905211731 | 17 | 107 | 0.0 | 0.0 | 0.00 | 0.15 | 0.15 | 98 | 1011.1 |
| 20260905211226 | 16 | 103 | 0.0 | 0.0 | 0.00 | 0.15 | 0.15 | 98 | 1011.0 |
| 20260905210724 | 17 | 118 | 0.0 | 1.6 | 0.00 | 0.15 | 0.15 | 98 | 1011.0 |
| 20260905210223 | 16 | 108 | 0.0 | 0.0 | 0.00 | 0.15 | 0.15 | 98 | 1011.1 |
| 20260905205721 | 16 | 99 | 0.0 | 0.0 | 0.00 | 0.15 | 0.15 | 98 | 1010.9 |
| 20260905205217 | 16 | 109 | 0.0 | 0.0 | 0.00 | 0.15 | 0.15 | 98 | 1011.1 |
| 20260905204716 | 16 | 109 | 1.6 | 1.6 | 0.00 | 0.15 | 0.15 | 98 | 1010.9 |
| 20260905204212 | 16 | 121 | 1.6 | 1.6 | 0.00 | 0.15 | 0.15 | 98 | 1011.0 |
| 20260905203712 | 16 | 108 | 0.0 | 0.0 | 0.00 | 0.15 | 0.15 | 98 | 1011.1 |
| 20260905203208 | 16 | 115 | 0.0 | 0.0 | 0.00 | 0.15 | 0.15 | 98 | 1011.0 |
| 20260905202703 | 16 | 109 | 0.0 | 0.0 | 0.00 | 0.15 | 0.15 | 98 | 1011.0 |
| 20260905202158 | 16 | 102 | 0.0 | 0.0 | 0.00 | 0.15 | 0.15 | 98 | 1011.0 |
| 20260905201653 | 16 | 106 | 0.0 | 0.0 | 0.48 | 0.15 | 0.15 | 97 | 1011.1 |
| 20260905201153 | 17 | 115 | 3.2 | 3.2 | 0.97 | 0.15 | 0.15 | 96 | 1011.0 |
| 20260905200648 | 17 | 111 | 0.0 | 1.6 | 0.66 | 0.10 | 0.10 | 96 | 1011.0 |
| 20260905200144 | 17 | 109 | 0.0 | 0.0 | 0.00 | 0.00 | 0.00 | 94 | 1010.9 |
| 20260905195642 | 17 | 95 | 0.0 | 1.6 | 0.00 | 0.00 | 0.00 | 93 | 1011.2 |
| 20260905195137 | 17 | 97 | 1.6 | 1.6 | 0.00 | 0.00 | 0.00 | 91 | 1010.9 |
| 20260905194632 | 18 | 93 | 6.4 | 11.3 | 0.00 | 0.00 | 0.00 | 86 | 1010.8 |
| 20260905194132 | 20 | 104 | 3.2 | 3.2 | 0.00 | 0.00 | 0.00 | 82 | 1010.6 |
| 20260905193626 | 20 | 97 | 0.0 | 0.0 | 0.00 | 0.00 | 0.00 | 81 | 1010.4 |
| 20260905193121 | 20 | 89 | 1.6 | 3.2 | 0.00 | 0.00 | 0.00 | 79 | 1010.4 |
| 20260905192617 | 21 | 100 | 1.6 | 1.6 | 0.00 | 0.00 | 0.00 | 78 | 1010.4 |
| 20260905192113 | 21 | 105 | 0.0 | 1.6 | 0.00 | 0.00 | 0.00 | 78 | 1010.2 |
| 20260905191612 | 21 | 143 | 1.6 | 3.2 | 0.00 | 0.00 | 0.00 | 79 | 1010.3 |
| 20260905191111 | 21 | 84 | 0.0 | 0.0 | 0.00 | 0.00 | 0.00 | 80 | 1010.3 |
| 20260905190609 | 21 | 102 | 1.6 | 1.6 | 0.00 | 0.00 | 0.00 | 79 | 1010.3 |
| 20260905190109 | 21 | 111 | 0.0 | 0.0 | 0.00 | 0.00 | 0.00 | 78 | 1010.2 |
| 20260905185608 | 22 | 105 | 3.2 | 3.2 | 0.00 | 0.00 | 0.00 | 77 | 1010.2 |
| 20260905185102 | 22 | 109 | 0.0 | 1.6 | 0.00 | 0.00 | 0.00 | 77 | 1010.5 |
| 20260905184557 | 21 | 109 | 0.0 | 0.0 | 0.00 | 0.00 | 0.00 | 75 | 1010.1 |
| 20260905184056 | 22 | 133 | 3.2 | 4.8 | 0.00 | 0.00 | 0.00 | 74 | 1010.1 |
| 20260905183555 | 22 | 102 | 3.2 | 4.8 | 0.00 | 0.00 | 0.00 | 75 | 1010.3 |
| 20260905183051 | 22 | 118 | 1.6 | 4.8 | 0.00 | 0.00 | 0.00 | 73 | 1010.0 |
| 20260905182551 | 22 | 107 | 0.0 | 1.6 | 0.00 | 0.00 | 0.00 | 75 | 1010.2 |
| 20260905182050 | 22 | 115 | 0.0 | 1.6 | 0.00 | 0.00 | 0.00 | 75 | 1010.1 |
| 20260905181545 | 22 | 119 | 3.2 | 3.2 | 0.00 | 0.00 | 0.00 | 74 | 1010.3 |
| 20260905181045 | 21 | 115 | 0.0 | 1.6 | 0.00 | 0.00 | 0.00 | 75 | 1010.0 |
| 20260905180545 | 21 | 113 | 4.8 | 4.8 | 0.00 | 0.00 | 0.00 | 76 | 1010.4 |
| 20260905180040 | 21 | 138 | 1.6 | 1.6 | 0.00 | 0.00 | 0.00 | 75 | 1010.3 |
| 20260905175539 | 22 | 102 | 1.6 | 1.6 | 0.00 | 0.00 | 0.00 | 76 | 1010.1 |
| 20260905175035 | 21 | 140 | 3.2 | 3.2 | 0.00 | 0.00 | 0.00 | 76 | 1010.3 |
| 20260905174531 | 22 | 91 | 3.2 | 3.2 | 0.00 | 0.00 | 0.00 | 74 | 1010.2 |
| 20260905174026 | 22 | 84 | 4.8 | 4.8 | 0.00 | 0.00 | 0.00 | 73 | 1009.9 |
| 20260905173522 | 21 | 98 | 3.2 | 3.2 | 0.00 | 0.00 | 0.00 | 73 | 1010.1 |
| 20260905173018 | 22 | 78 | 4.8 | 4.8 | 0.00 | 0.00 | 0.00 | 73 | 1009.9 |
| 20260905172516 | 22 | 65 | 3.2 | 3.2 | 0.00 | 0.00 | 0.00 | 74 | 1010.0 |
| 20260905172012 | 21 | 95 | 1.6 | 1.6 | 0.00 | 0.00 | 0.00 | 74 | 1010.0 |
| 20260905171508 | 21 | 119 | 1.6 | 3.2 | 0.00 | 0.00 | 0.00 | 75 | 1010.0 |
| 20260905171003 | 21 | 102 | 1.6 | 1.6 | 0.00 | 0.00 | 0.00 | 75 | 1009.9 |
| 20260905170500 | 22 | 103 | 1.6 | 3.2 | 0.00 | 0.00 | 0.00 | 75 | 1009.9 |
| 20260905165954 | 21 | 94 | 3.2 | 3.2 | 0.00 | 0.00 | 0.00 | 75 | 1009.9 |
| 20260905165449 | 22 | 75 | 4.8 | 4.8 | 0.00 | 0.00 | 0.00 | 73 | 1009.8 |
| 20260905164944 | 21 | 81 | 4.8 | 4.8 | 0.00 | 0.00 | 0.00 | 73 | 1010.0 |
| 20260905164438 | 21 | 145 | 1.6 | 1.6 | 0.00 | 0.00 | 0.00 | 74 | 1009.9 |
| 20260905163933 | 21 | 90 | 0.0 | 1.6 | 0.00 | 0.00 | 0.00 | 74 | 1009.9 |
| 20260905163430 | 21 | 118 | 0.0 | 1.6 | 0.00 | 0.00 | 0.00 | 75 | 1010.0 |
| 20260905162925 | 21 | 115 | 4.8 | 11.3 | 0.00 | 0.00 | 0.00 | 74 | 1009.7 |
| 20260905162420 | 21 | 91 | 0.0 | 1.6 | 0.00 | 0.00 | 0.00 | 77 | 1009.9 |
| 20260905161915 | 21 | 104 | 1.6 | 1.6 | 0.00 | 0.00 | 0.00 | 77 | 1009.9 |
| 20260905161414 | 21 | 92 | 3.2 | 3.2 | 0.00 | 0.00 | 0.00 | 75 | 1009.8 |
| 20260905160912 | 21 | 111 | 4.8 | 4.8 | 0.00 | 0.00 | 0.00 | 76 | 1010.0 |
| 20260905160406 | 20 | 105 | 1.6 | 1.6 | 0.00 | 0.00 | 0.00 | 80 | 1010.0 |
| 20260905155900 | 20 | 127 | 3.2 | 3.2 | 0.00 | 0.00 | 0.00 | 80 | 1010.1 |
| 20260905155355 | 20 | 102 | 3.2 | 3.2 | 0.00 | 0.00 | 0.00 | 80 | 1010.1 |
| 20260905154854 | 20 | 76 | 3.2 | 3.2 | 0.00 | 0.00 | 0.00 | 80 | 1010.4 |
| 20260905154350 | 20 | 106 | 1.6 | 1.6 | 0.00 | 0.00 | 0.00 | 79 | 1010.3 |
| 20260905153845 | 20 | 85 | 1.6 | 1.6 | 0.00 | 0.00 | 0.00 | 79 | 1010.1 |
| 20260905153341 | 20 | 111 | 0.0 | 1.6 | 0.00 | 0.00 | 0.00 | 78 | 1010.2 |
| 20260905152841 | 20 | 90 | 1.6 | 1.6 | 0.00 | 0.00 | 0.00 | 81 | 1010.1 |
| 20260905152340 | 20 | 112 | 0.0 | 0.0 | 0.00 | 0.00 | 0.00 | 82 | 1010.2 |
| 20260905151835 | 20 | 108 | 1.6 | 1.6 | 0.00 | 0.00 | 0.00 | 82 | 1010.1 |
| 20260905151331 | 19 | 106 | 0.0 | 1.6 | 0.00 | 0.00 | 0.00 | 83 | 1010.2 |
| 20260905150830 | 19 | 95 | 1.6 | 1.6 | 0.00 | 0.00 | 0.00 | 83 | 1010.1 |
| 20260905150325 | 19 | 106 | 0.0 | 0.0 | 0.00 | 0.00 | 0.00 | 84 | 1010.0 |
| 20260905145823 | 20 | 137 | 0.0 | 1.6 | 0.00 | 0.00 | 0.00 | 82 | 1010.0 |
| 20260905145322 | 20 | 93 | 0.0 | 1.6 | 0.00 | 0.00 | 0.00 | 81 | 1010.2 |
| 20260905144821 | 20 | 118 | 1.6 | 1.6 | 0.00 | 0.00 | 0.00 | 80 | 1010.3 |
| 20260905144317 | 21 | 192 | 1.6 | 3.2 | 0.00 | 0.00 | 0.00 | 78 | 1010.2 |
| 20260905143816 | 20 | 106 | 1.6 | 1.6 | 0.00 | 0.00 | 0.00 | 80 | 1010.0 |
| 20260905143310 | 21 | 110 | 0.0 | 1.6 | 0.00 | 0.00 | 0.00 | 78 | 1009.9 |
| 20260905142809 | 21 | 80 | 3.2 | 3.2 | 0.00 | 0.00 | 0.00 | 79 | 1010.1 |
| 20260905142306 | 20 | 95 | 1.6 | 3.2 | 0.00 | 0.00 | 0.00 | 81 | 1010.3 |
| 20260905141800 | 20 | 97 | 1.6 | 1.6 | 0.00 | 0.00 | 0.00 | 80 | 1010.4 |
| 20260905141255 | 20 | 100 | 1.6 | 3.2 | 0.00 | 0.00 | 0.00 | 81 | 1010.0 |
| 20260905140751 | 20 | 117 | 3.2 | 4.8 | 0.00 | 0.00 | 0.00 | 80 | 1010.2 |
| 20260905140250 | 19 | 104 | 1.6 | 1.6 | 0.00 | 0.00 | 0.00 | 84 | 1010.2 |
| 20260905135749 | 19 | 100 | 1.6 | 1.6 | 0.00 | 0.00 | 0.00 | 84 | 1010.2 |
| 20260905135246 | 19 | 91 | 3.2 | 3.2 | 0.00 | 0.00 | 0.00 | 83 | 1010.2 |
| 20260905134745 | 20 | 102 | 1.6 | 1.6 | 0.00 | 0.00 | 0.00 | 83 | 1010.0 |
| 20260905134245 | 20 | 108 | 0.0 | 0.0 | 0.00 | 0.00 | 0.00 | 84 | 1009.9 |
| 20260905133739 | 19 | 118 | 0.0 | 1.6 | 0.00 | 0.00 | 0.00 | 83 | 1010.1 |
| 20260905133235 | 19 | 86 | 3.2 | 3.2 | 0.00 | 0.00 | 0.00 | 83 | 1009.9 |
| 20260905132733 | 20 | 119 | 4.8 | 4.8 | 0.00 | 0.00 | 0.00 | 83 | 1009.9 |
| 20260905132230 | 19 | 104 | 0.0 | 0.0 | 0.00 | 0.00 | 0.00 | 86 | 1009.9 |
| 20260905131724 | 18 | 106 | 0.0 | 0.0 | 0.00 | 0.00 | 0.00 | 88 | 1009.6 |
| 20260905131220 | 18 | 105 | 0.0 | 0.0 | 0.00 | 0.00 | 0.00 | 88 | 1009.6 |
| 20260905130714 | 18 | 101 | 1.6 | 1.6 | 0.00 | 0.00 | 0.00 | 88 | 1009.6 |
| 20260905130213 | 18 | 104 | 0.0 | 0.0 | 0.00 | 0.00 | 0.00 | 89 | 1009.6 |
| 20260905125709 | 18 | 96 | 1.6 | 1.6 | 0.00 | 0.00 | 0.00 | 89 | 1009.6 |
| 20260905125204 | 18 | 102 | 0.0 | 0.0 | 0.00 | 0.00 | 0.00 | 88 | 1009.6 |
| 20260905124700 | 18 | 98 | 1.6 | 1.6 | 0.00 | 0.00 | 0.00 | 88 | 1009.6 |
| 20260905124155 | 18 | 104 | 0.0 | 1.6 | 0.00 | 0.00 | 0.00 | 88 | 1009.4 |
| 20260905123650 | 18 | 107 | 1.6 | 3.2 | 0.00 | 0.00 | 0.00 | 88 | 1009.3 |
| 20260905123148 | 18 | 107 | 0.0 | 0.0 | 0.00 | 0.00 | 0.00 | 88 | 1009.3 |
| 20260905122647 | 18 | 101 | 3.2 | 3.2 | 0.00 | 0.00 | 0.00 | 89 | 1009.5 |
| 20260905122142 | 18 | 91 | 1.6 | 1.6 | 0.00 | 0.00 | 0.00 | 90 | 1009.3 |
| 20260905121642 | 17 | 97 | 0.0 | 0.0 | 0.00 | 0.00 | 0.00 | 91 | 1009.2 |
| 20260905121138 | 17 | 88 | 1.6 | 1.6 | 0.00 | 0.00 | 0.00 | 91 | 1009.1 |
| 20260905120637 | 17 | 108 | 1.6 | 1.6 | 0.00 | 0.00 | 0.00 | 92 | 1009.2 |
| 20260905120132 | 17 | 98 | 1.6 | 1.6 | 0.00 | 0.00 | 0.00 | 92 | 1009.3 |
| 20260905115631 | 17 | 106 | 0.0 | 0.0 | 0.00 | 0.00 | 0.00 | 92 | 1009.1 |
| 20260905115127 | 17 | 103 | 1.6 | 1.6 | 0.00 | 0.00 | 0.00 | 92 | 1009.0 |
| 20260905114626 | 17 | 87 | 3.2 | 3.2 | 0.00 | 0.00 | 0.00 | 92 | 1008.9 |
| 20260905114125 | 17 | 99 | 1.6 | 1.6 | 0.00 | 0.00 | 0.00 | 92 | 1009.1 |
| 20260905113620 | 17 | 122 | 1.6 | 1.6 | 0.00 | 0.00 | 0.00 | 92 | 1008.9 |
| 20260905113115 | 17 | 91 | 1.6 | 1.6 | 0.00 | 0.00 | 0.00 | 92 | 1008.9 |
| 20260905112610 | 16 | 99 | 3.2 | 3.2 | 0.00 | 0.00 | 0.00 | 92 | 1009.0 |
| 20260905112106 | 16 | 107 | 0.0 | 1.6 | 0.00 | 0.00 | 0.00 | 92 | 1009.0 |
| 20260905111601 | 16 | 95 | 1.6 | 1.6 | 0.00 | 0.00 | 0.00 | 92 | 1008.9 |
| 20260905111059 | 16 | 93 | 1.6 | 3.2 | 0.00 | 0.00 | 0.00 | 93 | 1008.7 |
| 20260905110558 | 16 | 106 | 1.6 | 1.6 | 0.00 | 0.00 | 0.00 | 93 | 1008.8 |
| 20260905110054 | 16 | 97 | 1.6 | 3.2 | 0.00 | 0.00 | 0.00 | 93 | 1008.6 |
| 20260905105553 | 16 | 104 | 1.6 | 1.6 | 0.00 | 0.00 | 0.00 | 93 | 1008.7 |
| 20260905105048 | 16 | 105 | 1.6 | 1.6 | 0.00 | 0.00 | 0.00 | 94 | 1008.8 |
| 20260905104544 | 16 | 97 | 1.6 | 1.6 | 0.00 | 0.00 | 0.00 | 94 | 1008.6 |
| 20260905104043 | 16 | 106 | 1.6 | 1.6 | 0.00 | 0.00 | 0.00 | 95 | 1008.6 |
| 20260905103539 | 16 | 104 | 0.0 | 0.0 | 0.00 | 0.00 | 0.00 | 95 | 1008.7 |
| 20260905103035 | 16 | 102 | 3.2 | 3.2 | 0.00 | 0.00 | 0.00 | 96 | 1008.6 |
| 20260905102530 | 16 | 107 | 0.0 | 0.0 | 0.00 | 0.00 | 0.00 | 96 | 1008.6 |
| 20260905102026 | 15 | 104 | 0.0 | 0.0 | 0.00 | 0.00 | 0.00 | 96 | 1008.6 |
| 20260905101525 | 15 | 109 | 0.0 | 0.0 | 0.00 | 0.00 | 0.00 | 96 | 1008.3 |
| 20260905101023 | 16 | 109 | 0.0 | 0.0 | 0.00 | 0.00 | 0.00 | 95 | 1008.6 |
| 20260905100520 | 16 | 106 | 0.0 | 0.0 | 0.00 | 0.00 | 0.00 | 95 | 1008.6 |
| 20260905100019 | 16 | 109 | 0.0 | 0.0 | 0.00 | 0.00 | 0.00 | 95 | 1008.3 |
| 20260905095514 | 16 | 108 | 0.0 | 0.0 | 0.00 | 0.00 | 0.00 | 95 | 1008.4 |
| 20260905095009 | 16 | 102 | 0.0 | 0.0 | 0.00 | 0.00 | 0.00 | 95 | 1008.1 |
| 20260905094504 | 16 | 102 | 0.0 | 0.0 | 0.00 | 0.00 | 0.00 | 94 | 1008.0 |
| 20260905094003 | 16 | 108 | 0.0 | 0.0 | 0.00 | 0.00 | 0.00 | 94 | 1008.3 |
| 20260905093458 | 16 | 102 | 0.0 | 0.0 | 0.00 | 0.00 | 0.00 | 93 | 1008.2 |
| 20260905092954 | 16 | 106 | 1.6 | 1.6 | 0.00 | 0.00 | 0.00 | 92 | 1008.1 |
| 20260905092450 | 16 | 108 | 0.0 | 0.0 | 0.00 | 0.00 | 0.00 | 92 | 1008.1 |
| 20260905091945 | 16 | 107 | 0.0 | 0.0 | 0.00 | 0.00 | 0.00 | 92 | 1007.9 |
| 20260905091445 | 16 | 103 | 0.0 | 1.6 | 0.00 | 0.00 | 0.00 | 92 | 1008.1 |
| 20260905090944 | 16 | 96 | 3.2 | 3.2 | 0.00 | 0.00 | 0.00 | 92 | 1008.0 |
| 20260905090439 | 16 | 109 | 1.6 | 1.6 | 0.00 | 0.00 | 0.00 | 92 | 1008.1 |
| 20260905085939 | 16 | 99 | 0.0 | 0.0 | 0.00 | 0.00 | 0.00 | 92 | 1007.7 |
| 20260905085438 | 16 | 108 | 0.0 | 0.0 | 0.00 | 0.00 | 0.00 | 91 | 1008.0 |
| 20260905084934 | 16 | 98 | 1.6 | 1.6 | 0.00 | 0.00 | 0.00 | 91 | 1007.8 |
| 20260905084433 | 16 | 97 | 1.6 | 1.6 | 0.00 | 0.00 | 0.00 | 91 | 1007.9 |
| 20260905083928 | 16 | 96 | 1.6 | 1.6 | 0.00 | 0.00 | 0.00 | 91 | 1007.8 |
| 20260905083424 | 16 | 95 | 1.6 | 1.6 | 0.00 | 0.00 | 0.00 | 90 | 1007.8 |
| 20260905082920 | 17 | 108 | 1.6 | 3.2 | 0.00 | 0.00 | 0.00 | 90 | 1007.9 |
| 20260905082415 | 17 | 108 | 1.6 | 3.2 | 0.00 | 0.00 | 0.00 | 90 | 1007.9 |
| 20260905081910 | 17 | 93 | 3.2 | 3.2 | 0.00 | 0.00 | 0.00 | 89 | 1007.9 |
| 20260905081405 | 17 | 86 | 3.2 | 3.2 | 0.00 | 0.00 | 0.00 | 89 | 1007.9 |
| 20260905080903 | 17 | 93 | 3.2 | 3.2 | 0.00 | 0.00 | 0.00 | 89 | 1007.6 |
| 20260905080359 | 17 | 88 | 1.6 | 3.2 | 0.00 | 0.00 | 0.00 | 89 | 1007.8 |
| 20260905075858 | 17 | 90 | 3.2 | 3.2 | 0.00 | 0.00 | 0.00 | 89 | 1007.9 |
| 20260905075357 | 17 | 104 | 1.6 | 1.6 | 0.00 | 0.00 | 0.00 | 89 | 1007.7 |
| 20260905074856 | 17 | 97 | 3.2 | 3.2 | 0.00 | 0.00 | 0.00 | 89 | 1008.0 |
| 20260905074352 | 17 | 105 | 3.2 | 3.2 | 0.00 | 0.00 | 0.00 | 89 | 1007.8 |
| 20260905073848 | 17 | 100 | 3.2 | 3.2 | 0.00 | 0.00 | 0.00 | 89 | 1007.7 |
| 20260905073343 | 17 | 110 | 1.6 | 3.2 | 0.00 | 0.00 | 0.00 | 89 | 1008.0 |
| 20260905072838 | 17 | 103 | 1.6 | 3.2 | 0.00 | 0.00 | 0.00 | 89 | 1008.1 |
| 20260905072333 | 17 | 103 | 0.0 | 1.6 | 0.00 | 0.00 | 0.00 | 89 | 1007.9 |
| 20260905071829 | 17 | 103 | 0.0 | 0.0 | 0.00 | 0.00 | 0.00 | 88 | 1008.1 |
| 20260905071326 | 17 | 91 | 3.2 | 3.2 | 0.00 | 0.00 | 0.00 | 88 | 1008.1 |
| 20260905070819 | 17 | 93 | 1.6 | 1.6 | 0.00 | 0.00 | 0.00 | 88 | 1008.0 |
| 20260905070316 | 17 | 98 | 1.6 | 1.6 | 0.00 | 0.00 | 0.00 | 87 | 1008.3 |
| 20260905065815 | 17 | 103 | 3.2 | 3.2 | 0.00 | 0.00 | 0.00 | 88 | 1008.1 |
| 20260905065314 | 17 | 107 | 3.2 | 3.2 | 0.00 | 0.00 | 0.00 | 88 | 1008.2 |
| 20260905064809 | 17 | 109 | 1.6 | 3.2 | 0.00 | 0.00 | 0.00 | 88 | 1008.3 |
| 20260905064305 | 17 | 96 | 3.2 | 3.2 | 0.00 | 0.00 | 0.00 | 88 | 1008.2 |
| 20260905063803 | 17 | 110 | 1.6 | 1.6 | 0.00 | 0.00 | 0.00 | 88 | 1008.3 |
| 20260905063259 | 17 | 100 | 1.6 | 1.6 | 0.00 | 0.00 | 0.00 | 88 | 1008.6 |
| 20260905062755 | 17 | 100 | 1.6 | 3.2 | 0.00 | 0.00 | 0.00 | 87 | 1008.2 |
| 20260905062255 | 17 | 98 | 3.2 | 3.2 | 0.00 | 0.00 | 0.00 | 87 | 1008.2 |
| 20260905061749 | 17 | 116 | 1.6 | 1.6 | 0.00 | 0.00 | 0.00 | 86 | 1008.4 |
| 20260905061244 | 17 | 93 | 0.0 | 1.6 | 0.00 | 0.00 | 0.00 | 87 | 1008.6 |
| 20260905060738 | 17 | 86 | 3.2 | 3.2 | 0.00 | 0.00 | 0.00 | 87 | 1008.1 |
| 20260905060236 | 18 | 106 | 1.6 | 1.6 | 0.00 | 0.00 | 0.00 | 86 | 1008.4 |
| 20260905055734 | 18 | 106 | 1.6 | 3.2 | 0.00 | 0.00 | 0.00 | 85 | 1008.2 |
| 20260905055229 | 18 | 108 | 3.2 | 4.8 | 0.00 | 0.00 | 0.00 | 85 | 1008.4 |
| 20260905054724 | 18 | 83 | 4.8 | 4.8 | 0.00 | 0.00 | 0.00 | 85 | 1008.4 |
| 20260905054221 | 18 | 96 | 3.2 | 3.2 | 0.00 | 0.00 | 0.00 | 85 | 1008.4 |
| 20260905053719 | 18 | 90 | 3.2 | 3.2 | 0.00 | 0.00 | 0.00 | 85 | 1008.6 |
| 20260905053215 | 18 | 102 | 3.2 | 3.2 | 0.00 | 0.00 | 0.00 | 84 | 1008.6 |
| 20260905052714 | 18 | 114 | 3.2 | 3.2 | 0.00 | 0.00 | 0.00 | 84 | 1008.7 |
| 20260905052209 | 18 | 98 | 1.6 | 1.6 | 0.00 | 0.00 | 0.00 | 83 | 1008.3 |
| 20260905051709 | 18 | 105 | 3.2 | 3.2 | 0.00 | 0.00 | 0.00 | 83 | 1008.4 |
| 20260905051206 | 18 | 80 | 3.2 | 3.2 | 0.00 | 0.00 | 0.00 | 83 | 1008.8 |
| 20260905050702 | 18 | 106 | 3.2 | 3.2 | 0.00 | 0.00 | 0.00 | 84 | 1008.6 |
| 20260905050159 | 18 | 105 | 3.2 | 3.2 | 0.00 | 0.00 | 0.00 | 84 | 1008.6 |
| 20260905045658 | 18 | 107 | 1.6 | 1.6 | 0.00 | 0.00 | 0.00 | 84 | 1008.6 |
| 20260905045154 | 18 | 105 | 1.6 | 1.6 | 0.00 | 0.00 | 0.00 | 83 | 1008.3 |
| 20260905044649 | 18 | 102 | 1.6 | 1.6 | 0.00 | 0.00 | 0.00 | 83 | 1008.3 |
| 20260905044143 | 18 | 94 | 0.0 | 1.6 | 0.00 | 0.00 | 0.00 | 83 | 1008.2 |
| 20260905043642 | 18 | 86 | 1.6 | 3.2 | 0.00 | 0.00 | 0.00 | 83 | 1008.0 |
| 20260905043137 | 18 | 100 | 1.6 | 1.6 | 0.00 | 0.00 | 0.00 | 85 | 1008.3 |
| 20260905042637 | 18 | 104 | 0.0 | 1.6 | 0.00 | 0.00 | 0.00 | 85 | 1008.4 |
| 20260905042131 | 18 | 101 | 0.0 | 0.0 | 0.00 | 0.00 | 0.00 | 84 | 1008.7 |
| 20260905041627 | 18 | 140 | 1.6 | 1.6 | 0.00 | 0.00 | 0.00 | 83 | 1008.7 |
| 20260905041123 | 18 | 106 | 0.0 | 0.0 | 0.00 | 0.00 | 0.00 | 82 | 1008.7 |
| 20260905040623 | 18 | 105 | 1.6 | 1.6 | 0.00 | 0.00 | 0.00 | 81 | 1008.4 |
| 20260905040121 | 18 | 104 | 1.6 | 1.6 | 0.00 | 0.00 | 0.00 | 81 | 1008.7 |
| 20260905035616 | 18 | 108 | 1.6 | 1.6 | 0.00 | 0.00 | 0.00 | 82 | 1008.2 |
| 20260905035113 | 18 | 106 | 0.0 | 1.6 | 0.00 | 0.00 | 0.00 | 82 | 1008.4 |
| 20260905034609 | 18 | 104 | 0.0 | 1.6 | 0.00 | 0.00 | 0.00 | 82 | 1008.7 |
| 20260905034103 | 18 | 106 | 1.6 | 1.6 | 0.00 | 0.00 | 0.00 | 81 | 1008.7 |
| 20260905033602 | 18 | 106 | 1.6 | 1.6 | 0.00 | 0.00 | 0.00 | 81 | 1008.8 |
| 20260905033058 | 18 | 104 | 1.6 | 1.6 | 0.00 | 0.00 | 0.00 | 81 | 1008.4 |
| 20260905032557 | 18 | 105 | 1.6 | 1.6 | 0.00 | 0.00 | 0.00 | 82 | 1008.8 |
| 20260905032052 | 18 | 102 | 1.6 | 1.6 | 0.00 | 0.00 | 0.00 | 82 | 1008.8 |
| 20260905031548 | 18 | 98 | 1.6 | 1.6 | 0.00 | 0.00 | 0.00 | 82 | 1008.9 |
| 20260905031048 | 18 | 100 | 1.6 | 1.6 | 0.00 | 0.00 | 0.00 | 81 | 1008.7 |
| 20260905030543 | 18 | 97 | 1.6 | 1.6 | 0.00 | 0.00 | 0.00 | 82 | 1008.7 |
| 20260905030044 | 18 | 105 | 1.6 | 3.2 | 0.00 | 0.00 | 0.00 | 84 | 1008.9 |
| 20260905025539 | 18 | 100 | 1.6 | 1.6 | 0.00 | 0.00 | 0.00 | 85 | 1009.0 |
| 20260905025035 | 18 | 103 | 0.0 | 0.0 | 0.00 | 0.00 | 0.00 | 85 | 1009.0 |
| 20260905024530 | 18 | 102 | 0.0 | 0.0 | 0.00 | 0.00 | 0.00 | 87 | 1008.9 |
| 20260905024025 | 18 | 103 | 0.0 | 0.0 | 0.00 | 0.00 | 0.00 | 87 | 1008.9 |
| 20260905023520 | 18 | 106 | 0.0 | 0.0 | 0.00 | 0.00 | 0.00 | 86 | 1009.1 |
| 20260905023015 | 18 | 113 | 0.0 | 0.0 | 0.00 | 0.00 | 0.00 | 84 | 1009.1 |
| 20260905022509 | 18 | 105 | 0.0 | 0.0 | 0.00 | 0.00 | 0.00 | 82 | 1009.0 |
| 20260905022005 | 18 | 104 | 0.0 | 0.0 | 0.00 | 0.00 | 0.00 | 82 | 1009.0 |
| 20260905021504 | 18 | 109 | 0.0 | 0.0 | 0.00 | 0.00 | 0.00 | 82 | 1008.9 |
| 20260905021000 | 18 | 109 | 0.0 | 0.0 | 0.00 | 0.00 | 0.00 | 83 | 1009.0 |
| 20260905020500 | 18 | 105 | 0.0 | 0.0 | 0.00 | 0.00 | 0.00 | 81 | 1009.1 |
| 20260905015959 | 19 | 101 | 0.0 | 1.6 | 0.00 | 0.00 | 0.00 | 82 | 1009.3 |
| 20260905015458 | 19 | 108 | 1.6 | 1.6 | 0.00 | 0.00 | 0.00 | 79 | 1009.0 |
| 20260905014957 | 18 | 100 | 0.0 | 0.0 | 0.00 | 0.00 | 0.00 | 80 | 1009.2 |
| 20260905014452 | 18 | 102 | 0.0 | 0.0 | 0.00 | 0.00 | 0.00 | 82 | 1009.2 |
| 20260905013948 | 18 | 104 | 0.0 | 0.0 | 0.00 | 0.00 | 0.00 | 81 | 1009.4 |
| 20260905013444 | 18 | 105 | 0.0 | 0.0 | 0.00 | 0.00 | 0.00 | 83 | 1009.4 |
| 20260905012939 | 18 | 103 | 0.0 | 0.0 | 0.00 | 0.00 | 0.00 | 84 | 1009.5 |
| 20260905012434 | 18 | 108 | 0.0 | 0.0 | 0.00 | 0.00 | 0.00 | 82 | 1009.4 |
| 20260905011931 | 18 | 109 | 0.0 | 0.0 | 0.00 | 0.00 | 0.00 | 82 | 1009.4 |
| 20260905011427 | 19 | 131 | 0.0 | 0.0 | 0.00 | 0.00 | 0.00 | 81 | 1009.3 |
| 20260905010922 | 20 | 108 | 0.0 | 0.0 | 0.00 | 0.00 | 0.00 | 78 | 1009.3 |
| 20260905010417 | 20 | 106 | 0.0 | 0.0 | 0.00 | 0.00 | 0.00 | 78 | 1009.4 |
| 20260905005913 | 20 | 103 | 0.0 | 1.6 | 0.00 | 0.00 | 0.00 | 77 | 1009.4 |
| 20260905005409 | 20 | 108 | 0.0 | 1.6 | 0.00 | 0.00 | 0.00 | 74 | 1009.0 |
| 20260905004903 | 20 | 108 | 1.6 | 1.6 | 0.00 | 0.00 | 0.00 | 74 | 1009.3 |
| 20260905004403 | 20 | 104 | 1.6 | 1.6 | 0.00 | 0.00 | 0.00 | 74 | 1009.3 |
| 20260905003858 | 20 | 94 | 1.6 | 1.6 | 0.00 | 0.00 | 0.00 | 73 | 1009.2 |
| 20260905003354 | 20 | 104 | 1.6 | 1.6 | 0.00 | 0.00 | 0.00 | 72 | 1009.2 |
| 20260905002849 | 20 | 97 | 3.2 | 3.2 | 0.00 | 0.00 | 0.00 | 73 | 1009.3 |
| 20260905002344 | 21 | 108 | 1.6 | 1.6 | 0.00 | 0.00 | 0.00 | 71 | 1009.1 |
| 20260905001839 | 21 | 103 | 1.6 | 1.6 | 0.00 | 0.00 | 0.00 | 72 | 1008.9 |
| 20260905001339 | 21 | 100 | 1.6 | 3.2 | 0.00 | 0.00 | 0.00 | 71 | 1009.0 |
| 20260905000834 | 21 | 94 | 1.6 | 1.6 | 0.00 | 0.00 | 0.00 | 71 | 1009.2 |
| 20260905000329 | 21 | 100 | 1.6 | 1.6 | 0.00 | 0.00 | 0.00 | 71 | 1009.0 |
| 20260904235825 | 21 | 107 | 1.6 | 1.6 | 0.00 | 0.00 | 0.00 | 70 | 1009.1 |
| 20260904235320 | 21 | 107 | 1.6 | 1.6 | 0.00 | 0.00 | 0.00 | 70 | 1008.9 |